sensor_id;sensor_type;location;lat;lon;timestamp;temperature;humidity
19892;DHT22;10108;50.142;8.724;2023-03-04T00:01:45;4.00;99.90
19892;DHT22;10108;50.142;8.724;2023-03-04T00:04:12;4.00;99.90
19892;DHT22;10108;50.142;8.724;2023-03-04T00:06:38;4.00;99.90
19892;DHT22;10108;50.142;8.724;2023-03-04T00:09:04;4.00;99.90
19892;DHT22;10108;50.142;8.724;2023-03-04T00:11:31;4.00;99.90
19892;DHT22;10108;50.142;8.724;2023-03-04T00:13:57;3.90;99.90
19892;DHT22;10108;50.142;8.724;2023-03-04T00:16:24;4.00;99.90
19892;DHT22;10108;50.142;8.724;2023-03-04T00:18:54;4.00;99.90
19892;DHT22;10108;50.142;8.724;2023-03-04T00:21:21;3.90;99.90
19892;DHT22;10108;50.142;8.724;2023-03-04T00:23:48;3.90;99.90
19892;DHT22;10108;50.142;8.724;2023-03-04T00:26:14;3.80;99.90
19892;DHT22;10108;50.142;8.724;2023-03-04T00:28:43;3.80;99.90
19892;DHT22;10108;50.142;8.724;2023-03-04T00:31:09;3.80;99.90
19892;DHT22;10108;50.142;8.724;2023-03-04T00:33:36;3.70;99.90
19892;DHT22;10108;50.142;8.724;2023-03-04T00:36:03;3.70;99.90
19892;DHT22;10108;50.142;8.724;2023-03-04T00:38:29;3.60;99.90
19892;DHT22;10108;50.142;8.724;2023-03-04T00:40:55;3.50;99.90
19892;DHT22;10108;50.142;8.724;2023-03-04T00:43:22;3.50;99.90
19892;DHT22;10108;50.142;8.724;2023-03-04T00:45:48;3.40;99.90
19892;DHT22;10108;50.142;8.724;2023-03-04T00:48:15;3.50;99.90
19892;DHT22;10108;50.142;8.724;2023-03-04T00:50:42;3.40;99.90
19892;DHT22;10108;50.142;8.724;2023-03-04T00:53:09;3.40;99.90
19892;DHT22;10108;50.142;8.724;2023-03-04T00:55:35;3.40;99.90
19892;DHT22;10108;50.142;8.724;2023-03-04T00:58:01;3.40;99.90
19892;DHT22;10108;50.142;8.724;2023-03-04T01:00:28;3.30;99.90
19892;DHT22;10108;50.142;8.724;2023-03-04T01:02:54;3.30;99.90
19892;DHT22;10108;50.142;8.724;2023-03-04T01:05:20;3.20;99.90
19892;DHT22;10108;50.142;8.724;2023-03-04T01:07:47;3.20;99.90
19892;DHT22;10108;50.142;8.724;2023-03-04T01:10:14;3.20;99.90
19892;DHT22;10108;50.142;8.724;2023-03-04T01:12:40;3.20;99.90
19892;DHT22;10108;50.142;8.724;2023-03-04T01:15:09;3.20;99.90
19892;DHT22;10108;50.142;8.724;2023-03-04T01:17:35;3.20;99.90
19892;DHT22;10108;50.142;8.724;2023-03-04T01:20:03;3.30;99.90
19892;DHT22;10108;50.142;8.724;2023-03-04T01:22:29;3.30;99.90
19892;DHT22;10108;50.142;8.724;2023-03-04T01:24:55;3.30;99.90
19892;DHT22;10108;50.142;8.724;2023-03-04T01:27:21;3.40;99.90
19892;DHT22;10108;50.142;8.724;2023-03-04T01:29:49;3.40;99.90
19892;DHT22;10108;50.142;8.724;2023-03-04T01:32:15;3.40;99.90
19892;DHT22;10108;50.142;8.724;2023-03-04T01:34:41;3.40;99.90
19892;DHT22;10108;50.142;8.724;2023-03-04T01:37:07;3.40;99.90
19892;DHT22;10108;50.142;8.724;2023-03-04T01:39:34;3.50;99.90
19892;DHT22;10108;50.142;8.724;2023-03-04T01:42:00;3.50;99.90
19892;DHT22;10108;50.142;8.724;2023-03-04T01:44:26;3.50;99.90
19892;DHT22;10108;50.142;8.724;2023-03-04T01:46:55;3.60;99.90
19892;DHT22;10108;50.142;8.724;2023-03-04T01:49:24;3.70;99.90
19892;DHT22;10108;50.142;8.724;2023-03-04T01:51:52;3.70;99.90
19892;DHT22;10108;50.142;8.724;2023-03-04T01:54:21;3.70;99.90
19892;DHT22;10108;50.142;8.724;2023-03-04T01:56:50;3.70;99.90
19892;DHT22;10108;50.142;8.724;2023-03-04T01:59:22;3.70;99.90
19892;DHT22;10108;50.142;8.724;2023-03-04T02:01:53;3.70;99.90
19892;DHT22;10108;50.142;8.724;2023-03-04T02:04:23;3.80;99.90
19892;DHT22;10108;50.142;8.724;2023-03-04T02:06:50;3.70;99.90
19892;DHT22;10108;50.142;8.724;2023-03-04T02:09:17;3.70;99.90
19892;DHT22;10108;50.142;8.724;2023-03-04T02:11:45;3.60;99.90
19892;DHT22;10108;50.142;8.724;2023-03-04T02:14:12;3.70;99.90
19892;DHT22;10108;50.142;8.724;2023-03-04T02:16:40;3.60;99.90
19892;DHT22;10108;50.142;8.724;2023-03-04T02:19:20;3.60;99.90
19892;DHT22;10108;50.142;8.724;2023-03-04T02:21:52;3.50;99.90
19892;DHT22;10108;50.142;8.724;2023-03-04T02:24:45;3.50;99.90
19892;DHT22;10108;50.142;8.724;2023-03-04T02:27:12;3.50;99.90
19892;DHT22;10108;50.142;8.724;2023-03-04T02:29:39;3.50;99.90
19892;DHT22;10108;50.142;8.724;2023-03-04T02:32:10;3.50;99.90
19892;DHT22;10108;50.142;8.724;2023-03-04T02:34:43;3.50;99.90
19892;DHT22;10108;50.142;8.724;2023-03-04T02:37:10;3.50;99.90
19892;DHT22;10108;50.142;8.724;2023-03-04T02:39:42;3.50;99.90
19892;DHT22;10108;50.142;8.724;2023-03-04T02:42:10;3.50;99.90
19892;DHT22;10108;50.142;8.724;2023-03-04T02:44:42;3.50;99.90
19892;DHT22;10108;50.142;8.724;2023-03-04T02:47:13;3.50;99.90
19892;DHT22;10108;50.142;8.724;2023-03-04T02:49:40;3.50;99.90
19892;DHT22;10108;50.142;8.724;2023-03-04T02:52:09;3.50;99.90
19892;DHT22;10108;50.142;8.724;2023-03-04T02:54:37;3.50;99.90
19892;DHT22;10108;50.142;8.724;2023-03-04T02:57:06;3.50;99.90
19892;DHT22;10108;50.142;8.724;2023-03-04T02:59:36;3.40;99.90
19892;DHT22;10108;50.142;8.724;2023-03-04T03:02:03;3.50;99.90
19892;DHT22;10108;50.142;8.724;2023-03-04T03:04:30;3.50;99.90
19892;DHT22;10108;50.142;8.724;2023-03-04T03:06:56;3.50;99.90
19892;DHT22;10108;50.142;8.724;2023-03-04T03:09:23;3.60;99.90
19892;DHT22;10108;50.142;8.724;2023-03-04T03:11:50;3.60;99.90
19892;DHT22;10108;50.142;8.724;2023-03-04T03:14:16;3.60;99.90
19892;DHT22;10108;50.142;8.724;2023-03-04T03:16:43;3.70;99.90
19892;DHT22;10108;50.142;8.724;2023-03-04T03:19:10;3.70;99.90
19892;DHT22;10108;50.142;8.724;2023-03-04T03:21:36;3.80;99.90
19892;DHT22;10108;50.142;8.724;2023-03-04T03:24:02;3.80;99.90
19892;DHT22;10108;50.142;8.724;2023-03-04T03:26:28;3.80;99.90
19892;DHT22;10108;50.142;8.724;2023-03-04T03:28:55;3.80;99.90
19892;DHT22;10108;50.142;8.724;2023-03-04T03:31:21;3.90;99.90
19892;DHT22;10108;50.142;8.724;2023-03-04T03:33:47;3.90;99.90
19892;DHT22;10108;50.142;8.724;2023-03-04T03:36:13;4.00;99.90
19892;DHT22;10108;50.142;8.724;2023-03-04T03:38:39;4.00;99.90
19892;DHT22;10108;50.142;8.724;2023-03-04T03:41:05;4.10;99.90
19892;DHT22;10108;50.142;8.724;2023-03-04T03:43:32;4.00;99.90
19892;DHT22;10108;50.142;8.724;2023-03-04T03:45:58;4.00;99.90
19892;DHT22;10108;50.142;8.724;2023-03-04T03:48:24;4.00;99.90
19892;DHT22;10108;50.142;8.724;2023-03-04T03:50:50;3.90;99.90
19892;DHT22;10108;50.142;8.724;2023-03-04T03:53:16;3.90;99.90
19892;DHT22;10108;50.142;8.724;2023-03-04T03:55:42;3.90;99.90
19892;DHT22;10108;50.142;8.724;2023-03-04T03:58:08;3.90;99.90
19892;DHT22;10108;50.142;8.724;2023-03-04T04:00:34;3.90;99.90
19892;DHT22;10108;50.142;8.724;2023-03-04T04:03:01;3.80;99.90
19892;DHT22;10108;50.142;8.724;2023-03-04T04:05:27;3.90;99.90
19892;DHT22;10108;50.142;8.724;2023-03-04T04:07:53;3.90;99.90
19892;DHT22;10108;50.142;8.724;2023-03-04T04:10:19;4.00;99.90
19892;DHT22;10108;50.142;8.724;2023-03-04T04:12:46;4.00;99.90
19892;DHT22;10108;50.142;8.724;2023-03-04T04:15:12;4.00;99.90
19892;DHT22;10108;50.142;8.724;2023-03-04T04:17:39;4.00;99.90
19892;DHT22;10108;50.142;8.724;2023-03-04T04:20:06;4.00;99.90
19892;DHT22;10108;50.142;8.724;2023-03-04T04:22:32;4.00;99.90
19892;DHT22;10108;50.142;8.724;2023-03-04T04:24:59;4.00;99.90
19892;DHT22;10108;50.142;8.724;2023-03-04T04:27:25;4.10;99.90
19892;DHT22;10108;50.142;8.724;2023-03-04T04:29:51;4.10;99.90
19892;DHT22;10108;50.142;8.724;2023-03-04T04:32:17;4.10;99.90
19892;DHT22;10108;50.142;8.724;2023-03-04T04:34:43;4.10;99.90
19892;DHT22;10108;50.142;8.724;2023-03-04T04:37:09;4.10;99.90
19892;DHT22;10108;50.142;8.724;2023-03-04T04:39:35;4.10;99.90
19892;DHT22;10108;50.142;8.724;2023-03-04T04:42:02;4.10;99.90
19892;DHT22;10108;50.142;8.724;2023-03-04T04:44:28;4.10;99.90
19892;DHT22;10108;50.142;8.724;2023-03-04T04:46:54;4.10;99.90
19892;DHT22;10108;50.142;8.724;2023-03-04T04:49:20;4.10;99.90
19892;DHT22;10108;50.142;8.724;2023-03-04T04:51:46;4.10;99.90
19892;DHT22;10108;50.142;8.724;2023-03-04T04:54:13;4.10;99.90
19892;DHT22;10108;50.142;8.724;2023-03-04T04:56:40;4.10;99.90
19892;DHT22;10108;50.142;8.724;2023-03-04T04:59:06;4.10;99.90
19892;DHT22;10108;50.142;8.724;2023-03-04T05:01:35;4.10;99.90
19892;DHT22;10108;50.142;8.724;2023-03-04T05:04:01;4.10;99.90
19892;DHT22;10108;50.142;8.724;2023-03-04T05:06:27;4.10;99.90
19892;DHT22;10108;50.142;8.724;2023-03-04T05:08:54;4.10;99.90
19892;DHT22;10108;50.142;8.724;2023-03-04T05:11:20;4.20;99.90
19892;DHT22;10108;50.142;8.724;2023-03-04T05:13:47;4.30;99.90
19892;DHT22;10108;50.142;8.724;2023-03-04T05:16:14;4.30;99.90
19892;DHT22;10108;50.142;8.724;2023-03-04T05:18:41;4.30;99.90
19892;DHT22;10108;50.142;8.724;2023-03-04T05:21:08;4.30;99.90
19892;DHT22;10108;50.142;8.724;2023-03-04T05:23:37;4.40;99.90
19892;DHT22;10108;50.142;8.724;2023-03-04T05:26:04;4.40;99.90
19892;DHT22;10108;50.142;8.724;2023-03-04T05:28:31;4.40;99.90
19892;DHT22;10108;50.142;8.724;2023-03-04T05:30:58;4.40;99.90
19892;DHT22;10108;50.142;8.724;2023-03-04T05:33:24;4.40;99.90
19892;DHT22;10108;50.142;8.724;2023-03-04T05:35:50;4.30;99.90
19892;DHT22;10108;50.142;8.724;2023-03-04T05:38:18;4.30;99.90
19892;DHT22;10108;50.142;8.724;2023-03-04T05:40:45;4.30;99.90
19892;DHT22;10108;50.142;8.724;2023-03-04T05:43:12;4.30;99.90
19892;DHT22;10108;50.142;8.724;2023-03-04T05:45:39;4.30;99.90
19892;DHT22;10108;50.142;8.724;2023-03-04T05:48:05;4.30;99.90
19892;DHT22;10108;50.142;8.724;2023-03-04T05:50:32;4.30;99.90
19892;DHT22;10108;50.142;8.724;2023-03-04T05:52:58;4.30;99.90
19892;DHT22;10108;50.142;8.724;2023-03-04T05:55:25;4.30;99.90
19892;DHT22;10108;50.142;8.724;2023-03-04T05:57:52;4.30;99.90
19892;DHT22;10108;50.142;8.724;2023-03-04T06:00:18;4.20;99.90
19892;DHT22;10108;50.142;8.724;2023-03-04T06:02:45;4.20;99.90
19892;DHT22;10108;50.142;8.724;2023-03-04T06:05:12;4.20;99.90
19892;DHT22;10108;50.142;8.724;2023-03-04T06:07:39;4.30;99.90
19892;DHT22;10108;50.142;8.724;2023-03-04T06:10:05;4.30;99.90
19892;DHT22;10108;50.142;8.724;2023-03-04T06:12:32;4.40;99.90
19892;DHT22;10108;50.142;8.724;2023-03-04T06:14:58;4.40;99.90
19892;DHT22;10108;50.142;8.724;2023-03-04T06:17:24;4.40;99.90
19892;DHT22;10108;50.142;8.724;2023-03-04T06:19:50;4.40;99.90
19892;DHT22;10108;50.142;8.724;2023-03-04T06:22:16;4.40;99.90
19892;DHT22;10108;50.142;8.724;2023-03-04T06:24:42;4.40;99.90
19892;DHT22;10108;50.142;8.724;2023-03-04T06:27:08;4.40;99.90
19892;DHT22;10108;50.142;8.724;2023-03-04T06:29:34;4.40;99.90
19892;DHT22;10108;50.142;8.724;2023-03-04T06:32:01;4.40;99.90
19892;DHT22;10108;50.142;8.724;2023-03-04T06:34:27;4.40;99.90
19892;DHT22;10108;50.142;8.724;2023-03-04T06:36:54;4.40;99.90
19892;DHT22;10108;50.142;8.724;2023-03-04T06:39:21;4.40;99.90
19892;DHT22;10108;50.142;8.724;2023-03-04T06:41:47;4.50;99.90
19892;DHT22;10108;50.142;8.724;2023-03-04T06:44:13;4.50;99.90
19892;DHT22;10108;50.142;8.724;2023-03-04T06:46:39;4.50;99.90
19892;DHT22;10108;50.142;8.724;2023-03-04T06:49:05;4.50;99.90
19892;DHT22;10108;50.142;8.724;2023-03-04T06:51:31;4.60;99.90
19892;DHT22;10108;50.142;8.724;2023-03-04T06:53:57;4.60;99.90
19892;DHT22;10108;50.142;8.724;2023-03-04T06:56:23;4.70;99.90
19892;DHT22;10108;50.142;8.724;2023-03-04T06:58:50;4.70;99.90
19892;DHT22;10108;50.142;8.724;2023-03-04T07:01:20;4.70;99.90
19892;DHT22;10108;50.142;8.724;2023-03-04T07:03:47;4.70;99.90
19892;DHT22;10108;50.142;8.724;2023-03-04T07:06:16;4.80;99.90
19892;DHT22;10108;50.142;8.724;2023-03-04T07:08:42;4.80;99.90
19892;DHT22;10108;50.142;8.724;2023-03-04T07:11:09;4.80;99.90
19892;DHT22;10108;50.142;8.724;2023-03-04T07:13:35;4.80;99.90
19892;DHT22;10108;50.142;8.724;2023-03-04T07:16:04;4.90;99.90
19892;DHT22;10108;50.142;8.724;2023-03-04T07:18:31;4.90;99.90
19892;DHT22;10108;50.142;8.724;2023-03-04T07:20:57;4.90;99.90
19892;DHT22;10108;50.142;8.724;2023-03-04T07:23:23;4.90;99.90
19892;DHT22;10108;50.142;8.724;2023-03-04T07:25:50;4.90;99.90
19892;DHT22;10108;50.142;8.724;2023-03-04T07:28:16;4.90;99.90
19892;DHT22;10108;50.142;8.724;2023-03-04T07:30:42;5.00;99.90
19892;DHT22;10108;50.142;8.724;2023-03-04T07:33:09;5.00;99.90
19892;DHT22;10108;50.142;8.724;2023-03-04T07:35:35;5.00;99.90
19892;DHT22;10108;50.142;8.724;2023-03-04T07:38:02;5.00;99.90
19892;DHT22;10108;50.142;8.724;2023-03-04T07:40:28;5.00;99.90
19892;DHT22;10108;50.142;8.724;2023-03-04T07:42:55;5.00;99.90
19892;DHT22;10108;50.142;8.724;2023-03-04T07:45:22;4.90;99.90
19892;DHT22;10108;50.142;8.724;2023-03-04T07:47:49;4.90;99.90
19892;DHT22;10108;50.142;8.724;2023-03-04T07:50:16;4.90;99.90
19892;DHT22;10108;50.142;8.724;2023-03-04T07:52:44;4.80;99.90
19892;DHT22;10108;50.142;8.724;2023-03-04T07:55:12;4.80;99.90
19892;DHT22;10108;50.142;8.724;2023-03-04T07:57:40;4.90;99.90
19892;DHT22;10108;50.142;8.724;2023-03-04T08:00:08;4.90;99.90
19892;DHT22;10108;50.142;8.724;2023-03-04T08:02:39;4.90;99.90
19892;DHT22;10108;50.142;8.724;2023-03-04T08:05:05;5.00;99.90
19892;DHT22;10108;50.142;8.724;2023-03-04T08:07:32;5.00;99.90
19892;DHT22;10108;50.142;8.724;2023-03-04T08:09:58;5.10;99.90
19892;DHT22;10108;50.142;8.724;2023-03-04T08:12:25;5.10;99.90
19892;DHT22;10108;50.142;8.724;2023-03-04T08:14:51;5.10;99.90
19892;DHT22;10108;50.142;8.724;2023-03-04T08:17:18;5.10;99.90
19892;DHT22;10108;50.142;8.724;2023-03-04T08:19:44;5.10;99.90
19892;DHT22;10108;50.142;8.724;2023-03-04T08:22:10;5.10;99.90
19892;DHT22;10108;50.142;8.724;2023-03-04T08:24:36;5.20;99.90
19892;DHT22;10108;50.142;8.724;2023-03-04T08:27:02;5.20;99.90
19892;DHT22;10108;50.142;8.724;2023-03-04T08:29:29;5.20;99.90
19892;DHT22;10108;50.142;8.724;2023-03-04T08:31:55;5.20;99.90
19892;DHT22;10108;50.142;8.724;2023-03-04T08:34:24;5.20;99.90
19892;DHT22;10108;50.142;8.724;2023-03-04T08:36:50;5.20;99.90
19892;DHT22;10108;50.142;8.724;2023-03-04T08:39:17;5.30;99.90
19892;DHT22;10108;50.142;8.724;2023-03-04T08:41:44;5.30;99.90
19892;DHT22;10108;50.142;8.724;2023-03-04T08:44:10;5.30;99.90
19892;DHT22;10108;50.142;8.724;2023-03-04T08:46:38;5.30;99.90
19892;DHT22;10108;50.142;8.724;2023-03-04T08:49:05;5.30;99.90
19892;DHT22;10108;50.142;8.724;2023-03-04T08:51:31;5.30;99.90
19892;DHT22;10108;50.142;8.724;2023-03-04T08:53:57;5.30;99.90
19892;DHT22;10108;50.142;8.724;2023-03-04T08:56:24;5.40;99.90
19892;DHT22;10108;50.142;8.724;2023-03-04T08:58:50;5.40;99.90
19892;DHT22;10108;50.142;8.724;2023-03-04T09:01:16;5.40;99.90
19892;DHT22;10108;50.142;8.724;2023-03-04T09:08:35;5.50;99.90
19892;DHT22;10108;50.142;8.724;2023-03-04T09:15:56;5.50;99.90
19892;DHT22;10108;50.142;8.724;2023-03-04T09:18:23;5.60;99.90
19892;DHT22;10108;50.142;8.724;2023-03-04T09:20:49;5.60;99.90
19892;DHT22;10108;50.142;8.724;2023-03-04T09:23:16;5.60;99.90
19892;DHT22;10108;50.142;8.724;2023-03-04T09:25:43;5.60;99.90
19892;DHT22;10108;50.142;8.724;2023-03-04T09:28:12;5.70;99.90
19892;DHT22;10108;50.142;8.724;2023-03-04T09:30:38;5.70;99.90
19892;DHT22;10108;50.142;8.724;2023-03-04T09:33:05;5.70;99.90
19892;DHT22;10108;50.142;8.724;2023-03-04T09:35:31;5.80;99.90
19892;DHT22;10108;50.142;8.724;2023-03-04T09:37:58;5.80;99.90
19892;DHT22;10108;50.142;8.724;2023-03-04T09:40:40;5.80;99.90
19892;DHT22;10108;50.142;8.724;2023-03-04T09:43:21;5.80;99.90
19892;DHT22;10108;50.142;8.724;2023-03-04T09:45:53;5.90;99.90
19892;DHT22;10108;50.142;8.724;2023-03-04T09:48:23;5.90;99.90
19892;DHT22;10108;50.142;8.724;2023-03-04T09:54:10;5.90;99.90
19892;DHT22;10108;50.142;8.724;2023-03-04T09:56:40;5.90;99.90
19892;DHT22;10108;50.142;8.724;2023-03-04T10:01:53;6.00;99.90
19892;DHT22;10108;50.142;8.724;2023-03-04T10:04:42;6.10;99.90
19892;DHT22;10108;50.142;8.724;2023-03-04T10:07:18;6.10;99.90
19892;DHT22;10108;50.142;8.724;2023-03-04T10:09:56;6.20;99.90
19892;DHT22;10108;50.142;8.724;2023-03-04T10:12:27;6.20;99.90
19892;DHT22;10108;50.142;8.724;2023-03-04T10:15:19;6.20;99.90
19892;DHT22;10108;50.142;8.724;2023-03-04T10:17:50;6.20;99.90
19892;DHT22;10108;50.142;8.724;2023-03-04T10:20:24;6.30;99.90
19892;DHT22;10108;50.142;8.724;2023-03-04T10:22:58;6.40;99.90
19892;DHT22;10108;50.142;8.724;2023-03-04T10:25:31;6.40;99.90
19892;DHT22;10108;50.142;8.724;2023-03-04T10:27:58;6.30;99.90
19892;DHT22;10108;50.142;8.724;2023-03-04T10:33:11;6.30;99.90
19892;DHT22;10108;50.142;8.724;2023-03-04T10:35:37;6.30;99.90
19892;DHT22;10108;50.142;8.724;2023-03-04T10:38:03;6.30;99.90
19892;DHT22;10108;50.142;8.724;2023-03-04T10:40:36;6.30;99.90
19892;DHT22;10108;50.142;8.724;2023-03-04T10:43:03;6.30;99.90
19892;DHT22;10108;50.142;8.724;2023-03-04T10:45:38;6.30;99.90
19892;DHT22;10108;50.142;8.724;2023-03-04T10:48:04;6.40;99.90
19892;DHT22;10108;50.142;8.724;2023-03-04T10:50:31;6.40;99.90
19892;DHT22;10108;50.142;8.724;2023-03-04T10:52:57;6.40;99.90
19892;DHT22;10108;50.142;8.724;2023-03-04T10:55:42;6.50;99.90
19892;DHT22;10108;50.142;8.724;2023-03-04T10:58:12;6.50;99.90
19892;DHT22;10108;50.142;8.724;2023-03-04T11:00:40;6.50;99.90
19892;DHT22;10108;50.142;8.724;2023-03-04T11:03:28;6.50;99.90
19892;DHT22;10108;50.142;8.724;2023-03-04T11:08:40;6.60;99.90
19892;DHT22;10108;50.142;8.724;2023-03-04T11:11:30;6.50;99.90
19892;DHT22;10108;50.142;8.724;2023-03-04T11:14:22;6.60;99.90
19892;DHT22;10108;50.142;8.724;2023-03-04T11:19:26;6.60;99.90
19892;DHT22;10108;50.142;8.724;2023-03-04T11:21:54;6.60;99.90
19892;DHT22;10108;50.142;8.724;2023-03-04T11:24:25;6.60;99.90
19892;DHT22;10108;50.142;8.724;2023-03-04T11:27:01;6.60;99.90
19892;DHT22;10108;50.142;8.724;2023-03-04T11:29:41;6.60;99.90
19892;DHT22;10108;50.142;8.724;2023-03-04T11:32:17;6.60;99.90
19892;DHT22;10108;50.142;8.724;2023-03-04T11:34:53;6.60;99.90
19892;DHT22;10108;50.142;8.724;2023-03-04T11:37:38;6.70;99.90
19892;DHT22;10108;50.142;8.724;2023-03-04T11:40:23;6.70;99.90
19892;DHT22;10108;50.142;8.724;2023-03-04T11:43:24;6.80;99.90
19892;DHT22;10108;50.142;8.724;2023-03-04T11:57:17;6.90;99.90
19892;DHT22;10108;50.142;8.724;2023-03-04T12:00:12;6.90;99.90
19892;DHT22;10108;50.142;8.724;2023-03-04T12:03:23;6.90;99.90
19892;DHT22;10108;50.142;8.724;2023-03-04T12:13:48;6.90;99.90
19892;DHT22;10108;50.142;8.724;2023-03-04T12:16:34;7.00;99.90
19892;DHT22;10108;50.142;8.724;2023-03-04T12:19:16;6.90;99.90
19892;DHT22;10108;50.142;8.724;2023-03-04T12:25:12;7.00;99.90
19892;DHT22;10108;50.142;8.724;2023-03-04T12:28:24;7.00;99.90
19892;DHT22;10108;50.142;8.724;2023-03-04T12:44:12;7.30;99.90
19892;DHT22;10108;50.142;8.724;2023-03-04T12:47:10;7.40;99.90
19892;DHT22;10108;50.142;8.724;2023-03-04T12:55:11;7.50;99.90
19892;DHT22;10108;50.142;8.724;2023-03-04T12:57:40;7.60;99.90
19892;DHT22;10108;50.142;8.724;2023-03-04T13:56:28;7.90;99.90
19892;DHT22;10108;50.142;8.724;2023-03-04T14:04:19;7.80;99.90
19892;DHT22;10108;50.142;8.724;2023-03-04T14:06:50;7.90;99.90
19892;DHT22;10108;50.142;8.724;2023-03-04T14:09:21;7.90;99.90
19892;DHT22;10108;50.142;8.724;2023-03-04T14:11:52;7.80;99.90
19892;DHT22;10108;50.142;8.724;2023-03-04T14:14:24;7.90;99.90
19892;DHT22;10108;50.142;8.724;2023-03-04T14:17:02;7.80;99.90
19892;DHT22;10108;50.142;8.724;2023-03-04T14:19:33;7.80;99.90
19892;DHT22;10108;50.142;8.724;2023-03-04T14:22:28;7.80;99.90
19892;DHT22;10108;50.142;8.724;2023-03-04T14:27:33;7.70;99.90
19892;DHT22;10108;50.142;8.724;2023-03-04T14:30:04;7.60;99.90
19892;DHT22;10108;50.142;8.724;2023-03-04T14:32:31;7.70;99.90
19892;DHT22;10108;50.142;8.724;2023-03-04T14:35:02;7.70;99.90
19892;DHT22;10108;50.142;8.724;2023-03-04T14:37:42;7.70;99.90
19892;DHT22;10108;50.142;8.724;2023-03-04T14:40:19;7.60;99.90
19892;DHT22;10108;50.142;8.724;2023-03-04T14:42:50;7.60;99.90
19892;DHT22;10108;50.142;8.724;2023-03-04T14:45:18;7.70;99.90
19892;DHT22;10108;50.142;8.724;2023-03-04T14:47:45;7.70;99.90
19892;DHT22;10108;50.142;8.724;2023-03-04T14:50:16;7.70;99.90
19892;DHT22;10108;50.142;8.724;2023-03-04T14:52:48;7.70;99.90
19892;DHT22;10108;50.142;8.724;2023-03-04T14:55:23;7.70;99.90
19892;DHT22;10108;50.142;8.724;2023-03-04T14:58:05;7.60;99.90
19892;DHT22;10108;50.142;8.724;2023-03-04T15:00:36;7.60;99.90
19892;DHT22;10108;50.142;8.724;2023-03-04T15:03:16;7.60;99.90
19892;DHT22;10108;50.142;8.724;2023-03-04T15:05:44;7.70;99.90
19892;DHT22;10108;50.142;8.724;2023-03-04T15:08:23;7.70;99.90
19892;DHT22;10108;50.142;8.724;2023-03-04T15:11:00;7.60;99.90
19892;DHT22;10108;50.142;8.724;2023-03-04T15:13:41;7.60;99.90
19892;DHT22;10108;50.142;8.724;2023-03-04T15:16:09;7.60;99.90
19892;DHT22;10108;50.142;8.724;2023-03-04T15:18:35;7.60;99.90
19892;DHT22;10108;50.142;8.724;2023-03-04T15:21:05;7.60;99.90
19892;DHT22;10108;50.142;8.724;2023-03-04T15:23:32;7.60;99.90
19892;DHT22;10108;50.142;8.724;2023-03-04T15:26:00;7.60;99.90
19892;DHT22;10108;50.142;8.724;2023-03-04T15:28:35;7.60;99.90
19892;DHT22;10108;50.142;8.724;2023-03-04T15:31:02;7.50;99.90
19892;DHT22;10108;50.142;8.724;2023-03-04T15:33:28;7.60;99.90
19892;DHT22;10108;50.142;8.724;2023-03-04T15:35:59;7.60;99.90
19892;DHT22;10108;50.142;8.724;2023-03-04T15:38:27;7.60;99.90
19892;DHT22;10108;50.142;8.724;2023-03-04T15:40:55;7.60;99.90
19892;DHT22;10108;50.142;8.724;2023-03-04T15:43:23;7.60;99.90
19892;DHT22;10108;50.142;8.724;2023-03-04T15:45:50;7.60;99.90
19892;DHT22;10108;50.142;8.724;2023-03-04T15:48:17;7.60;99.90
19892;DHT22;10108;50.142;8.724;2023-03-04T15:53:36;7.60;99.90
19892;DHT22;10108;50.142;8.724;2023-03-04T15:56:03;7.50;99.90
19892;DHT22;10108;50.142;8.724;2023-03-04T15:58:30;7.50;99.90
19892;DHT22;10108;50.142;8.724;2023-03-04T16:00:57;7.50;99.90
19892;DHT22;10108;50.142;8.724;2023-03-04T16:03:23;7.40;99.90
19892;DHT22;10108;50.142;8.724;2023-03-04T16:05:50;7.40;99.90
19892;DHT22;10108;50.142;8.724;2023-03-04T16:08:20;7.40;99.90
19892;DHT22;10108;50.142;8.724;2023-03-04T16:10:47;7.40;99.90
19892;DHT22;10108;50.142;8.724;2023-03-04T16:13:16;7.40;99.90
19892;DHT22;10108;50.142;8.724;2023-03-04T16:15:43;7.40;99.90
19892;DHT22;10108;50.142;8.724;2023-03-04T16:18:11;7.30;99.90
19892;DHT22;10108;50.142;8.724;2023-03-04T16:20:38;7.40;99.90
19892;DHT22;10108;50.142;8.724;2023-03-04T16:23:09;7.40;99.90
19892;DHT22;10108;50.142;8.724;2023-03-04T16:25:37;7.40;99.90
19892;DHT22;10108;50.142;8.724;2023-03-04T16:28:03;7.30;99.90
19892;DHT22;10108;50.142;8.724;2023-03-04T16:30:30;7.30;99.90
19892;DHT22;10108;50.142;8.724;2023-03-04T16:32:56;7.30;99.90
19892;DHT22;10108;50.142;8.724;2023-03-04T16:35:22;7.30;99.90
19892;DHT22;10108;50.142;8.724;2023-03-04T16:37:53;7.30;99.90
19892;DHT22;10108;50.142;8.724;2023-03-04T16:40:24;7.30;99.90
19892;DHT22;10108;50.142;8.724;2023-03-04T16:42:51;7.30;99.90
19892;DHT22;10108;50.142;8.724;2023-03-04T16:45:23;7.40;99.90
19892;DHT22;10108;50.142;8.724;2023-03-04T16:47:49;7.30;99.90
19892;DHT22;10108;50.142;8.724;2023-03-04T16:50:18;7.30;99.90
19892;DHT22;10108;50.142;8.724;2023-03-04T16:52:47;7.40;99.90
19892;DHT22;10108;50.142;8.724;2023-03-04T16:55:19;7.50;99.90
19892;DHT22;10108;50.142;8.724;2023-03-04T16:57:48;7.40;99.90
19892;DHT22;10108;50.142;8.724;2023-03-04T17:00:16;7.40;99.90
19892;DHT22;10108;50.142;8.724;2023-03-04T17:02:44;7.40;99.90
19892;DHT22;10108;50.142;8.724;2023-03-04T17:05:18;7.30;99.90
19892;DHT22;10108;50.142;8.724;2023-03-04T17:07:46;7.30;99.90
19892;DHT22;10108;50.142;8.724;2023-03-04T17:10:13;7.30;99.90
19892;DHT22;10108;50.142;8.724;2023-03-04T17:12:40;7.30;99.90
19892;DHT22;10108;50.142;8.724;2023-03-04T17:15:09;7.30;99.90
19892;DHT22;10108;50.142;8.724;2023-03-04T17:17:37;7.30;99.90
19892;DHT22;10108;50.142;8.724;2023-03-04T17:20:03;7.30;99.90
19892;DHT22;10108;50.142;8.724;2023-03-04T17:22:32;7.30;99.90
19892;DHT22;10108;50.142;8.724;2023-03-04T17:24:58;7.30;99.90
19892;DHT22;10108;50.142;8.724;2023-03-04T17:27:24;7.20;99.90
19892;DHT22;10108;50.142;8.724;2023-03-04T17:29:50;7.20;99.90
19892;DHT22;10108;50.142;8.724;2023-03-04T17:32:18;7.20;99.90
19892;DHT22;10108;50.142;8.724;2023-03-04T17:34:44;7.20;99.90
19892;DHT22;10108;50.142;8.724;2023-03-04T17:37:11;7.20;99.90
19892;DHT22;10108;50.142;8.724;2023-03-04T17:39:38;7.20;99.90
19892;DHT22;10108;50.142;8.724;2023-03-04T17:42:04;7.20;99.90
19892;DHT22;10108;50.142;8.724;2023-03-04T17:44:31;7.20;99.90
19892;DHT22;10108;50.142;8.724;2023-03-04T17:46:57;7.20;99.90
19892;DHT22;10108;50.142;8.724;2023-03-04T17:49:24;7.20;99.90
19892;DHT22;10108;50.142;8.724;2023-03-04T17:51:50;7.20;99.90
19892;DHT22;10108;50.142;8.724;2023-03-04T17:54:18;7.10;99.90
19892;DHT22;10108;50.142;8.724;2023-03-04T17:56:44;7.10;99.90
19892;DHT22;10108;50.142;8.724;2023-03-04T17:59:14;7.20;99.90
19892;DHT22;10108;50.142;8.724;2023-03-04T18:01:40;7.20;99.90
19892;DHT22;10108;50.142;8.724;2023-03-04T18:04:07;7.10;99.90
19892;DHT22;10108;50.142;8.724;2023-03-04T18:06:33;7.10;99.90
19892;DHT22;10108;50.142;8.724;2023-03-04T18:08:59;7.00;99.90